Time,TemperatureF,DewpointF,PressureIn,WindDirection,WindDirectionDegrees,WindSpeedMPH,WindSpeedGustMPH,Humidity,HourlyPrecipIn,Conditions,Clouds,dailyrainin,SolarRadiationWatts/m^2,SoftwareType,DateUTC
2013-09-06 00:04:00,53.0,52.0,-100.00,NNE,28,0.0,0.0,97,0.00,,,0.00,0.000000,,2013-09-06 04:04:00,
2013-09-06 00:14:00,53.0,52.0,-100.00,NNE,28,0.0,0.0,97,0.00,,,0.00,0.000000,,2013-09-06 04:14:00,
2013-09-06 00:44:00,53.0,49.0,-100.00,East,88,1.0,2.0,87,0.00,,,0.00,0.000000,,2013-09-06 04:44:00,
2013-09-06 00:54:00,53.0,49.0,-100.00,East,88,1.0,2.0,87,0.00,,,0.00,0.000000,,2013-09-06 04:54:00,
2013-09-06 01:03:00,53.0,49.0,-100.00,East,88,1.0,2.0,87,0.00,,,0.00,0.000000,,2013-09-06 05:03:00,
2013-09-06 01:12:00,53.0,49.0,-100.00,East,88,1.0,2.0,87,0.00,,,0.00,0.000000,,2013-09-06 05:12:00,
2013-09-06 01:43:00,50.0,49.0,-100.00,ENE,72,0.0,0.0,95,0.00,,,0.00,0.000000,,2013-09-06 05:43:00,
2013-09-06 01:52:00,50.0,49.0,-100.00,ENE,72,0.0,0.0,95,0.00,,,0.00,0.000000,,2013-09-06 05:52:00,
2013-09-06 02:02:00,50.0,49.0,-100.00,ENE,72,0.0,0.0,95,0.00,,,0.00,0.000000,,2013-09-06 06:02:00,
2013-09-06 02:12:00,50.0,49.0,-100.00,ENE,72,0.0,0.0,95,0.00,,,0.00,0.000000,,2013-09-06 06:12:00,
2013-09-06 02:42:00,48.0,47.0,-100.00,North,9,0.0,1.0,98,0.00,,,0.00,0.000000,,2013-09-06 06:42:00,
2013-09-06 02:53:00,48.0,47.0,-100.00,North,9,0.0,1.0,98,0.00,,,0.00,0.000000,,2013-09-06 06:53:00,
2013-09-06 03:01:00,48.0,47.0,-100.00,North,9,0.0,1.0,98,0.00,,,0.00,0.000000,,2013-09-06 07:01:00,
2013-09-06 03:12:00,48.0,47.0,-100.00,North,9,0.0,1.0,98,0.00,,,0.00,0.000000,,2013-09-06 07:12:00,
2013-09-06 03:52:00,47.0,47.0,-100.00,ENE,74,0.0,0.0,100,0.00,,,0.00,0.000000,,2013-09-06 07:52:00,
2013-09-06 04:03:00,47.0,47.0,-100.00,ENE,74,0.0,0.0,100,0.00,,,0.00,0.000000,,2013-09-06 08:03:00,
2013-09-06 04:12:00,47.0,47.0,-100.00,ENE,74,0.0,0.0,100,0.00,,,0.00,0.000000,,2013-09-06 08:12:00,
2013-09-06 04:43:00,47.0,47.0,-100.00,ENE,70,0.0,0.0,100,0.00,,,0.00,0.000000,,2013-09-06 08:43:00,
2013-09-06 04:52:00,47.0,47.0,-100.00,ENE,70,0.0,0.0,100,0.00,,,0.00,0.000000,,2013-09-06 08:52:00,
2013-09-06 05:02:00,47.0,47.0,-100.00,ENE,70,0.0,0.0,100,0.00,,,0.00,0.000000,,2013-09-06 09:02:00,
2013-09-06 05:11:00,47.0,47.0,-100.00,ENE,70,0.0,0.0,100,0.00,,,0.00,0.000000,,2013-09-06 09:11:00,
2013-09-06 05:43:00,47.0,47.0,-100.00,NE,49,0.0,0.0,100,0.00,,,0.00,0.000000,,2013-09-06 09:43:00,
2013-09-06 05:54:00,47.0,47.0,-100.00,NE,49,0.0,0.0,100,0.00,,,0.00,0.000000,,2013-09-06 09:54:00,
2013-09-06 06:03:00,47.0,47.0,-100.00,NE,49,0.0,0.0,100,0.00,,,0.00,0.000000,,2013-09-06 10:03:00,
2013-09-06 06:13:00,47.0,47.0,-100.00,NE,49,0.0,0.0,100,0.00,,,0.00,0.000000,,2013-09-06 10:13:00,
2013-09-06 06:43:00,45.0,45.0,-100.00,NE,53,0.0,0.0,100,0.00,,,0.00,0.000000,,2013-09-06 10:43:00,
2013-09-06 06:53:00,45.0,45.0,-100.00,NE,53,0.0,0.0,100,0.00,,,0.00,0.000000,,2013-09-06 10:53:00,
2013-09-06 07:03:00,45.0,45.0,-100.00,NE,53,0.0,0.0,100,0.00,,,0.00,0.000000,,2013-09-06 11:03:00,
2013-09-06 07:12:00,45.0,45.0,-100.00,NE,53,0.0,0.0,100,0.00,,,0.00,0.000000,,2013-09-06 11:12:00,
2013-09-06 07:42:00,45.0,45.0,-100.00,SE,130,0.0,0.0,100,0.00,,,0.00,4.000000,,2013-09-06 11:42:00,
2013-09-06 07:52:00,45.0,45.0,-100.00,SE,130,0.0,0.0,100,0.00,,,0.00,4.000000,,2013-09-06 11:52:00,
2013-09-06 08:02:00,45.0,45.0,-100.00,SE,130,0.0,0.0,100,0.00,,,0.00,4.000000,,2013-09-06 12:02:00,
2013-09-06 08:12:00,45.0,45.0,-100.00,SE,130,0.0,0.0,100,0.00,,,0.00,4.000000,,2013-09-06 12:12:00,
2013-09-06 08:42:00,47.0,47.0,-100.00,ENE,77,0.0,0.0,100,0.00,,,0.00,28.000000,,2013-09-06 12:42:00,
2013-09-06 08:52:00,47.0,47.0,-100.00,ENE,77,0.0,0.0,100,0.00,,,0.00,28.000000,,2013-09-06 12:52:00,
2013-09-06 09:02:00,47.0,47.0,-100.00,ENE,77,0.0,0.0,100,0.00,,,0.00,28.000000,,2013-09-06 13:02:00,
2013-09-06 09:11:00,47.0,47.0,-100.00,ENE,77,0.0,0.0,100,0.00,,,0.00,28.000000,,2013-09-06 13:11:00,
2013-09-06 09:42:00,56.0,51.0,-100.00,North,357,1.0,3.0,84,0.00,,,0.00,191.000000,,2013-09-06 13:42:00,
2013-09-06 09:52:00,56.0,51.0,-100.00,North,357,1.0,3.0,84,0.00,,,0.00,191.000000,,2013-09-06 13:52:00,
2013-09-06 10:02:00,56.0,51.0,-100.00,North,357,1.0,3.0,84,0.00,,,0.00,191.000000,,2013-09-06 14:02:00,
2013-09-06 10:11:00,56.0,51.0,-100.00,North,357,1.0,3.0,84,0.00,,,0.00,191.000000,,2013-09-06 14:11:00,
2013-09-06 11:11:00,64.0,49.0,-100.00,East,97,2.0,6.0,59,0.00,,,0.00,470.000000,,2013-09-06 15:11:00,
2013-09-06 11:43:00,66.0,49.0,-100.00,WNW,302,2.0,6.0,55,0.00,,,0.00,616.000000,,2013-09-06 15:43:00,
2013-09-06 11:53:00,66.0,49.0,-100.00,WNW,302,2.0,6.0,55,0.00,,,0.00,616.000000,,2013-09-06 15:53:00,
2013-09-06 12:04:00,66.0,49.0,-100.00,WNW,302,2.0,6.0,55,0.00,,,0.00,616.000000,,2013-09-06 16:04:00,
2013-09-06 12:13:00,66.0,49.0,-100.00,WNW,302,2.0,6.0,55,0.00,,,0.00,616.000000,,2013-09-06 16:13:00,
2013-09-06 12:43:00,68.0,51.0,-100.00,NW,320,4.0,9.0,54,0.00,,,0.00,734.000000,,2013-09-06 16:43:00,
2013-09-06 12:54:00,68.0,51.0,-100.00,NW,320,4.0,9.0,54,0.00,,,0.00,734.000000,,2013-09-06 16:54:00,
2013-09-06 13:04:00,68.0,51.0,-100.00,NW,320,4.0,9.0,54,0.00,,,0.00,734.000000,,2013-09-06 17:04:00,
2013-09-06 13:43:00,71.0,48.0,-100.00,NW,306,3.0,7.0,44,0.00,,,0.00,794.000000,,2013-09-06 17:43:00,
2013-09-06 13:53:00,71.0,48.0,-100.00,NW,306,3.0,7.0,44,0.00,,,0.00,794.000000,,2013-09-06 17:53:00,
2013-09-06 14:02:00,71.0,48.0,-100.00,NW,306,3.0,7.0,44,0.00,,,0.00,794.000000,,2013-09-06 18:02:00,
2013-09-06 14:12:00,71.0,48.0,-100.00,NW,306,3.0,7.0,44,0.00,,,0.00,794.000000,,2013-09-06 18:12:00,
2013-09-06 14:42:00,73.0,49.0,-100.00,ESE,116,3.0,8.0,43,0.00,,,0.00,791.000000,,2013-09-06 18:42:00,
2013-09-06 14:52:00,73.0,49.0,-100.00,ESE,116,3.0,8.0,43,0.00,,,0.00,791.000000,,2013-09-06 18:52:00,
2013-09-06 15:02:00,73.0,49.0,-100.00,ESE,116,3.0,8.0,43,0.00,,,0.00,791.000000,,2013-09-06 19:02:00,
2013-09-06 15:12:00,73.0,49.0,-100.00,ESE,116,3.0,8.0,43,0.00,,,0.00,791.000000,,2013-09-06 19:12:00,
2013-09-06 15:43:00,74.0,47.0,-100.00,NW,311,3.0,6.0,39,0.00,,,0.00,732.000000,,2013-09-06 19:43:00,
2013-09-06 15:52:00,74.0,47.0,-100.00,NW,311,3.0,6.0,39,0.00,,,0.00,732.000000,,2013-09-06 19:52:00,
2013-09-06 16:02:00,74.0,47.0,-100.00,NW,311,3.0,6.0,39,0.00,,,0.00,732.000000,,2013-09-06 20:02:00,
2013-09-06 16:12:00,74.0,47.0,-100.00,NW,311,3.0,6.0,39,0.00,,,0.00,732.000000,,2013-09-06 20:12:00,
2013-09-06 16:42:00,76.0,46.0,-100.00,SSW,211,3.0,7.0,35,0.00,,,0.00,626.000000,,2013-09-06 20:42:00,
2013-09-06 16:52:00,76.0,46.0,-100.00,SSW,211,3.0,7.0,35,0.00,,,0.00,626.000000,,2013-09-06 20:52:00,
2013-09-06 17:02:00,76.0,46.0,-100.00,SSW,211,3.0,7.0,35,0.00,,,0.00,626.000000,,2013-09-06 21:02:00,
2013-09-06 17:12:00,76.0,46.0,-100.00,SSW,211,3.0,7.0,35,0.00,,,0.00,626.000000,,2013-09-06 21:12:00,
2013-09-06 17:43:00,77.0,49.0,-100.00,WNW,283,3.0,7.0,37,0.00,,,0.00,477.000000,,2013-09-06 21:43:00,
2013-09-06 17:54:00,77.0,49.0,-100.00,WNW,283,3.0,7.0,37,0.00,,,0.00,477.000000,,2013-09-06 21:54:00,
2013-09-06 18:04:00,77.0,49.0,-100.00,WNW,283,3.0,7.0,37,0.00,,,0.00,477.000000,,2013-09-06 22:04:00,
2013-09-06 18:13:00,77.0,49.0,-100.00,WNW,283,3.0,7.0,37,0.00,,,0.00,477.000000,,2013-09-06 22:13:00,
2013-09-06 20:42:00,58.0,54.0,-100.00,ENE,72,0.0,1.0,86,0.00,,,0.00,3.000000,,2013-09-07 00:42:00,
2013-09-06 20:52:00,58.0,54.0,-100.00,ENE,72,0.0,1.0,86,0.00,,,0.00,3.000000,,2013-09-07 00:52:00,
2013-09-06 21:02:00,58.0,54.0,-100.00,ENE,72,0.0,1.0,86,0.00,,,0.00,3.000000,,2013-09-07 01:02:00,
2013-09-06 21:12:00,58.0,54.0,-100.00,ENE,72,0.0,1.0,86,0.00,,,0.00,3.000000,,2013-09-07 01:12:00,
2013-09-06 21:42:00,55.0,53.0,-100.00,ENE,62,1.0,2.0,93,0.00,,,0.00,0.000000,,2013-09-07 01:42:00,
2013-09-06 21:54:00,55.0,53.0,-100.00,ENE,62,1.0,2.0,93,0.00,,,0.00,0.000000,,2013-09-07 01:54:00,
2013-09-06 22:02:00,55.0,53.0,-100.00,ENE,62,1.0,2.0,93,0.00,,,0.00,0.000000,,2013-09-07 02:02:00,
2013-09-06 22:12:00,55.0,53.0,-100.00,ENE,62,1.0,2.0,93,0.00,,,0.00,0.000000,,2013-09-07 02:12:00,
2013-09-06 22:43:00,52.0,51.0,-100.00,ENE,63,0.0,0.0,97,0.00,,,0.00,0.000000,,2013-09-07 02:43:00,
2013-09-06 22:52:00,52.0,51.0,-100.00,ENE,63,0.0,0.0,97,0.00,,,0.00,0.000000,,2013-09-07 02:52:00,
2013-09-06 23:03:00,52.0,51.0,-100.00,ENE,63,0.0,0.0,97,0.00,,,0.00,0.000000,,2013-09-07 03:03:00,
2013-09-06 23:12:00,52.0,51.0,-100.00,ENE,63,0.0,0.0,97,0.00,,,0.00,0.000000,,2013-09-07 03:12:00,
2013-09-06 23:45:00,51.0,51.0,-100.00,NE,46,0.0,0.0,100,0.00,,,0.00,0.000000,,2013-09-07 03:45:00,
2013-09-06 23:55:00,51.0,51.0,-100.00,NE,46,0.0,0.0,100,0.00,,,0.00,0.000000,,2013-09-07 03:55:00,